createdAt,value
2023-02-19T00:04:36.205Z,95.57
2023-02-19T00:14:09.201Z,95.42
2023-02-19T00:23:43.875Z,95.51
2023-02-19T00:33:16.804Z,95.34
2023-02-19T00:42:51.445Z,95.64
2023-02-19T00:52:24.147Z,95.90
2023-02-19T01:01:57.925Z,96.00
2023-02-19T01:11:32.233Z,96.37
2023-02-19T01:21:06.711Z,96.62
2023-02-19T01:30:38.841Z,97.09
2023-02-19T01:40:13.389Z,98.61
2023-02-19T01:49:45.970Z,100.00
2023-02-19T01:59:18.011Z,100.00
2023-02-19T02:08:51.292Z,100.00
2023-02-19T02:18:25.464Z,100.00
2023-02-19T02:27:57.160Z,100.00
2023-02-19T02:37:32.850Z,100.00
2023-02-19T02:47:05.143Z,100.00
2023-02-19T02:56:39.273Z,100.00
2023-02-19T03:06:13.544Z,99.30
2023-02-19T03:15:47.960Z,98.71
2023-02-19T03:25:21.897Z,98.14
2023-02-19T03:34:57.017Z,99.68
2023-02-19T03:44:30.475Z,99.65
2023-02-19T03:54:03.693Z,98.91
2023-02-19T04:03:37.908Z,98.74
2023-02-19T04:13:11.846Z,98.55
2023-02-19T04:22:47.186Z,97.18
2023-02-19T04:32:19.031Z,97.09
2023-02-19T04:41:55.732Z,96.94
2023-02-19T04:51:26.942Z,96.96
2023-02-19T05:01:01.216Z,97.08
2023-02-19T05:10:36.624Z,96.64
2023-02-19T05:20:10.261Z,96.50
2023-02-19T05:29:42.320Z,96.35
2023-02-19T05:39:17.805Z,95.74
2023-02-19T05:48:50.045Z,95.34
2023-02-19T05:58:23.894Z,98.34
2023-02-19T06:07:57.188Z,100.00
2023-02-19T06:17:30.621Z,100.00
2023-02-19T06:27:04.902Z,100.00
2023-02-19T06:36:39.114Z,100.00
2023-02-19T06:46:13.349Z,100.00
2023-02-19T06:55:47.219Z,99.44
2023-02-19T07:05:21.180Z,99.13
2023-02-19T07:14:56.378Z,98.20
2023-02-19T07:24:30.505Z,97.36
2023-02-19T07:34:03.083Z,95.80
2023-02-19T07:43:38.419Z,95.05
2023-02-19T07:53:10.746Z,94.14
2023-02-19T08:02:46.110Z,93.58
2023-02-19T08:12:20.486Z,92.64
2023-02-19T08:21:54.503Z,91.00
2023-02-19T08:31:27.449Z,89.83
2023-02-19T08:41:01.360Z,89.38
2023-02-19T08:50:37.568Z,88.16
2023-02-19T09:00:11.393Z,87.10
2023-02-19T09:01:14.497Z,87.39
2023-02-19T09:10:48.442Z,88.08
2023-02-19T09:20:20.878Z,86.75
2023-02-19T09:21:24.969Z,86.55
2023-02-19T09:22:28.915Z,86.43
2023-02-19T09:23:31.203Z,85.89
2023-02-19T09:33:03.975Z,84.14
2023-02-19T09:34:06.550Z,83.86
2023-02-19T09:35:08.988Z,83.98
2023-02-19T09:36:13.071Z,82.57
2023-02-19T09:37:15.308Z,83.01
2023-02-19T09:38:19.506Z,82.55
2023-02-19T09:39:27.798Z,81.28
2023-02-19T09:48:57.033Z,82.14
2023-02-19T09:50:00.991Z,80.56
2023-02-19T09:51:04.877Z,81.05
2023-02-19T09:52:07.346Z,81.31
2023-02-19T09:53:09.730Z,80.72
2023-02-19T09:54:12.229Z,79.38
2023-02-19T09:55:16.327Z,79.93
2023-02-19T10:04:46.567Z,79.07
2023-02-19T10:05:50.609Z,79.53
2023-02-19T10:06:54.492Z,78.95
2023-02-19T10:07:57.183Z,78.46
2023-02-19T10:08:59.700Z,78.57
2023-02-19T10:10:03.737Z,77.87
2023-02-19T10:11:07.724Z,77.67
2023-02-19T10:12:10.187Z,77.32
2023-02-19T10:13:14.032Z,77.15
2023-02-19T10:22:44.823Z,77.93
2023-02-19T10:23:47.280Z,77.81
2023-02-19T10:24:49.741Z,77.23
2023-02-19T10:25:52.130Z,76.85
2023-02-19T10:26:54.583Z,77.01
2023-02-19T10:27:57.019Z,76.56
2023-02-19T10:28:59.528Z,77.02
2023-02-19T10:30:03.651Z,77.04
2023-02-19T10:31:07.631Z,77.05
2023-02-19T10:32:10.039Z,76.66
2023-02-19T10:33:12.450Z,77.10
2023-02-19T10:34:14.842Z,77.36
2023-02-19T10:35:18.881Z,78.03
2023-02-19T10:36:22.727Z,77.24
2023-02-19T10:37:26.654Z,76.95
2023-02-19T10:38:30.549Z,76.73
2023-02-19T10:39:32.877Z,76.26
2023-02-19T10:40:35.353Z,77.39
2023-02-19T10:41:37.752Z,77.87
2023-02-19T10:42:40.230Z,77.42
2023-02-19T10:43:42.688Z,77.76
2023-02-19T10:44:45.079Z,77.35
2023-02-19T10:45:47.506Z,77.36
2023-02-19T10:46:49.947Z,77.19
2023-02-19T10:47:52.399Z,77.12
2023-02-19T10:48:54.812Z,76.67
2023-02-19T10:49:57.232Z,77.25
2023-02-19T10:50:59.697Z,77.37
2023-02-19T10:52:02.128Z,77.32
2023-02-19T10:53:04.587Z,77.24
2023-02-19T10:54:08.667Z,77.62
2023-02-19T10:55:12.569Z,76.93
2023-02-19T10:56:16.524Z,77.15
2023-02-19T10:57:18.781Z,77.38
2023-02-19T10:58:21.305Z,76.55
2023-02-19T10:59:23.796Z,77.72
2023-02-19T11:00:26.200Z,78.90
2023-02-19T11:01:30.243Z,78.98
2023-02-19T11:02:32.589Z,80.16
2023-02-19T11:03:36.485Z,81.94
2023-02-19T11:04:38.850Z,82.53
2023-02-19T11:05:42.826Z,84.14
2023-02-19T11:06:45.111Z,84.76
2023-02-19T11:07:47.617Z,85.14
2023-02-19T11:08:51.684Z,85.42
2023-02-19T11:09:55.561Z,86.04
2023-02-19T11:10:59.530Z,85.47
2023-02-19T11:12:03.369Z,83.85
2023-02-19T11:13:07.258Z,86.25
2023-02-19T11:14:11.152Z,86.12
2023-02-19T11:15:15.236Z,83.55
2023-02-19T11:16:17.535Z,81.79
2023-02-19T11:17:20.149Z,83.27
2023-02-19T11:18:22.559Z,83.44
2023-02-19T11:19:25.085Z,84.48
2023-02-19T11:20:27.564Z,83.30
2023-02-19T11:21:30.009Z,84.11
2023-02-19T11:22:33.429Z,86.01
2023-02-19T11:23:35.882Z,85.04
2023-02-19T11:24:38.284Z,84.65
2023-02-19T11:25:40.761Z,84.46
2023-02-19T11:26:43.248Z,85.54
2023-02-19T11:27:47.272Z,84.66
2023-02-19T11:28:51.256Z,84.62
2023-02-19T11:29:55.553Z,85.00
2023-02-19T11:30:59.588Z,82.02
2023-02-19T11:32:01.918Z,79.31
2023-02-19T11:33:04.228Z,78.96
2023-02-19T11:34:06.666Z,78.60
2023-02-19T11:35:14.085Z,78.79
2023-02-19T11:36:17.829Z,80.02
2023-02-19T11:37:20.130Z,80.34
2023-02-19T11:38:24.227Z,79.74
2023-02-19T11:39:26.776Z,77.63
2023-02-19T11:48:59.201Z,75.65
2023-02-19T11:50:01.779Z,75.45
2023-02-19T11:51:05.790Z,73.89
2023-02-19T11:52:09.802Z,72.90
2023-02-19T11:53:14.946Z,73.29
2023-02-19T11:54:17.125Z,74.69
2023-02-19T11:55:19.567Z,76.32
2023-02-19T11:56:22.646Z,73.22
2023-02-19T11:57:25.286Z,73.69
2023-02-19T11:58:29.339Z,73.22
2023-02-19T11:59:31.690Z,72.59
2023-02-19T12:00:35.774Z,71.21
2023-02-19T12:01:38.082Z,72.54
2023-02-19T12:02:40.387Z,71.22
2023-02-19T12:03:42.962Z,71.46
2023-02-19T12:04:45.519Z,73.40
2023-02-19T12:05:47.888Z,72.91
2023-02-19T12:06:50.341Z,72.59
2023-02-19T12:07:54.422Z,72.66
2023-02-19T12:08:58.348Z,73.23
2023-02-19T12:10:00.574Z,71.82
2023-02-19T12:11:04.663Z,71.78
2023-02-19T12:12:06.938Z,73.26
2023-02-19T12:13:11.223Z,73.88
2023-02-19T12:14:13.730Z,72.28
2023-02-19T12:15:16.079Z,71.31
2023-02-19T12:16:20.254Z,70.65
2023-02-19T12:17:22.553Z,70.57
2023-02-19T12:18:25.002Z,72.81
2023-02-19T12:19:27.410Z,71.99
2023-02-19T12:20:31.729Z,71.09
2023-02-19T12:21:32.401Z,70.90
2023-02-19T12:22:34.797Z,71.86
2023-02-19T12:23:37.290Z,70.66
2023-02-19T12:24:39.857Z,70.97
2023-02-19T12:25:42.221Z,71.02
2023-02-19T12:26:46.346Z,72.81
2023-02-19T12:27:48.629Z,72.57
2023-02-19T12:28:51.034Z,71.30
2023-02-19T12:38:23.424Z,71.90
2023-02-19T12:39:25.871Z,73.17
2023-02-19T12:40:28.278Z,73.55
2023-02-19T12:41:32.421Z,73.39
2023-02-19T12:42:36.331Z,71.80
2023-02-19T12:43:38.757Z,70.96
2023-02-19T12:44:42.843Z,71.31
2023-02-19T12:45:45.161Z,71.83
2023-02-19T12:46:47.622Z,72.35
2023-02-19T12:47:49.970Z,71.57
2023-02-19T12:48:52.434Z,71.11
2023-02-19T12:49:55.962Z,71.12
2023-02-19T12:50:58.221Z,70.95
2023-02-19T12:52:01.681Z,70.00
2023-02-19T12:53:05.650Z,70.47
2023-02-19T12:54:07.949Z,71.26
2023-02-19T12:55:10.805Z,69.99
2023-02-19T12:56:14.774Z,70.50
2023-02-19T12:57:17.301Z,71.42
2023-02-19T12:58:21.829Z,71.40
2023-02-19T12:59:23.387Z,72.22
2023-02-19T13:00:25.868Z,70.94
2023-02-19T13:01:28.407Z,70.85
2023-02-19T13:02:31.114Z,70.76
2023-02-19T13:03:35.256Z,70.82
2023-02-19T13:04:39.142Z,72.55
2023-02-19T13:05:41.474Z,72.04
2023-02-19T13:06:45.497Z,72.56
2023-02-19T13:07:47.839Z,69.95
2023-02-19T13:09:05.231Z,68.65
2023-02-19T13:09:55.905Z,69.05
2023-02-19T13:10:58.314Z,67.19
2023-02-19T13:12:01.052Z,67.86
2023-02-19T13:13:03.447Z,66.19
2023-02-19T13:14:05.970Z,67.08
2023-02-19T13:15:10.202Z,67.89
2023-02-19T13:16:16.109Z,68.12
2023-02-19T13:17:18.098Z,68.44
2023-02-19T13:18:20.477Z,70.04
2023-02-19T13:19:24.477Z,69.23
2023-02-19T13:20:26.758Z,68.37
2023-02-19T13:21:29.226Z,68.52
2023-02-19T13:22:34.367Z,68.23
2023-02-19T13:23:36.589Z,68.42
2023-02-19T13:24:39.366Z,69.03
2023-02-19T13:25:41.824Z,69.04
2023-02-19T13:26:44.266Z,69.68
2023-02-19T13:28:49.154Z,70.77
2023-02-19T13:29:52.900Z,70.31
2023-02-19T13:30:54.146Z,70.42
2023-02-19T13:31:56.569Z,69.99
2023-02-19T13:32:58.916Z,69.87
2023-02-19T13:34:01.687Z,69.38
2023-02-19T13:35:04.153Z,69.64
2023-02-19T13:36:06.595Z,70.93
2023-02-19T13:37:09.025Z,70.53
2023-02-19T13:38:11.606Z,70.29
2023-02-19T13:40:16.427Z,69.66
2023-02-19T13:41:18.870Z,69.88
2023-02-19T13:42:21.267Z,70.78
2023-02-19T13:43:23.896Z,69.93
2023-02-19T13:44:26.372Z,69.51
2023-02-19T13:45:28.883Z,69.35
2023-02-19T13:46:31.333Z,69.42
2023-02-19T13:47:33.709Z,68.28
2023-02-19T13:48:36.176Z,68.33
2023-02-19T13:49:40.253Z,67.63
2023-02-19T13:50:42.645Z,67.28
2023-02-19T13:51:45.091Z,68.78
2023-02-19T13:52:47.602Z,67.91
2023-02-19T13:53:49.891Z,68.18
2023-02-19T13:54:52.308Z,66.25
2023-02-19T13:55:54.719Z,66.51
2023-02-19T13:56:57.197Z,66.09
2023-02-19T13:58:01.217Z,66.18
2023-02-19T13:59:05.113Z,66.62
2023-02-19T14:00:09.266Z,66.03
2023-02-19T14:01:13.399Z,66.37
2023-02-19T14:02:17.108Z,66.97
2023-02-19T14:03:19.411Z,66.81
2023-02-19T14:04:21.876Z,67.13
2023-02-19T14:05:24.192Z,66.90
2023-02-19T14:06:28.712Z,66.69
2023-02-19T14:07:29.142Z,66.65
2023-02-19T14:08:33.185Z,67.21
2023-02-19T14:09:35.496Z,68.49
2023-02-19T14:10:37.979Z,67.29
2023-02-19T14:11:40.384Z,67.05
2023-02-19T14:12:44.422Z,67.29
2023-02-19T14:13:46.758Z,67.90
2023-02-19T14:14:49.264Z,68.20
2023-02-19T14:15:51.723Z,67.85
2023-02-19T14:16:55.672Z,68.41
2023-02-19T14:17:57.989Z,67.64
2023-02-19T14:19:00.466Z,67.16
2023-02-19T14:20:03.024Z,67.67
2023-02-19T14:21:05.378Z,68.49
2023-02-19T14:22:09.268Z,67.50
2023-02-19T14:23:11.571Z,67.77
2023-02-19T14:24:15.584Z,67.75
2023-02-19T14:25:17.962Z,68.37
2023-02-19T14:26:20.369Z,68.95
2023-02-19T14:27:22.840Z,68.70
2023-02-19T14:28:25.287Z,69.02
2023-02-19T14:29:27.684Z,68.84
2023-02-19T14:30:31.895Z,68.55
2023-02-19T14:31:34.297Z,68.83
2023-02-19T14:32:36.609Z,69.29
2023-02-19T14:33:40.626Z,69.45
2023-02-19T14:34:44.117Z,69.49
2023-02-19T14:35:46.559Z,67.95
2023-02-19T14:36:49.045Z,69.54
2023-02-19T14:37:51.348Z,68.31
2023-02-19T14:38:53.723Z,67.63
2023-02-19T14:39:59.154Z,68.43
2023-02-19T14:41:01.374Z,68.09
2023-02-19T14:42:05.507Z,67.79
2023-02-19T14:43:07.732Z,68.08
2023-02-19T14:44:11.704Z,68.38
2023-02-19T14:45:15.682Z,69.21
2023-02-19T14:46:17.915Z,69.73
2023-02-19T14:47:21.991Z,68.63
2023-02-19T14:48:24.329Z,69.15
2023-02-19T14:49:28.362Z,69.06
2023-02-19T14:50:30.734Z,69.18
2023-02-19T14:51:33.120Z,67.41
2023-02-19T14:52:35.564Z,67.16
2023-02-19T14:53:38.024Z,68.07
2023-02-19T14:54:40.576Z,69.00
2023-02-19T14:55:42.954Z,68.44
2023-02-19T14:56:45.369Z,68.24
2023-02-19T14:57:47.866Z,69.00
2023-02-19T14:58:52.002Z,69.27
2023-02-19T14:59:54.335Z,69.51
2023-02-19T15:00:56.696Z,68.62
2023-02-19T15:02:00.786Z,68.45
2023-02-19T15:03:03.228Z,69.30
2023-02-19T15:04:07.275Z,69.76
2023-02-19T15:05:11.174Z,70.85
2023-02-19T15:06:13.416Z,72.45
2023-02-19T15:07:15.824Z,74.02
2023-02-19T15:08:19.902Z,75.59
2023-02-19T15:09:23.742Z,77.32
2023-02-19T15:10:27.813Z,78.86
2023-02-19T15:11:31.552Z,79.64
2023-02-19T15:12:33.872Z,80.74
2023-02-19T15:13:41.866Z,81.24
2023-02-19T15:14:45.657Z,81.67
2023-02-19T15:15:49.570Z,81.87
2023-02-19T15:16:51.972Z,82.25
2023-02-19T15:17:54.404Z,82.06
2023-02-19T15:18:56.756Z,82.24
2023-02-19T15:19:59.207Z,82.56
2023-02-19T15:21:01.664Z,83.25
2023-02-19T15:22:03.999Z,83.26
2023-02-19T15:23:06.485Z,83.44
2023-02-19T15:24:08.912Z,83.07
2023-02-19T15:25:11.374Z,83.33
2023-02-19T15:26:13.829Z,83.49
2023-02-19T15:27:18.842Z,84.35
2023-02-19T15:28:21.084Z,84.16
2023-02-19T15:29:23.433Z,83.93
2023-02-19T15:30:25.961Z,83.64
2023-02-19T15:31:28.366Z,83.83
2023-02-19T15:32:30.812Z,84.14
2023-02-19T15:33:33.227Z,84.18
2023-02-19T15:34:35.549Z,84.35
2023-02-19T15:35:37.975Z,84.41
2023-02-19T15:36:40.298Z,85.15
2023-02-19T15:37:42.711Z,84.24
2023-02-19T15:38:46.830Z,84.63
2023-02-19T15:39:49.373Z,85.16
2023-02-19T15:40:51.574Z,85.20
2023-02-19T15:41:55.591Z,85.75
2023-02-19T15:42:59.585Z,85.57
2023-02-19T15:44:01.871Z,85.40
2023-02-19T15:53:33.591Z,87.49
2023-02-19T15:54:36.031Z,87.34
2023-02-19T15:55:38.556Z,87.70
2023-02-19T15:56:42.599Z,87.71
2023-02-19T15:57:44.844Z,87.91
2023-02-19T15:58:47.378Z,87.79
2023-02-19T15:59:49.855Z,87.16
2023-02-19T16:00:52.249Z,87.36
2023-02-19T16:01:54.688Z,87.28
2023-02-19T16:02:57.167Z,86.87
2023-02-19T16:04:01.172Z,86.26
2023-02-19T16:05:05.054Z,86.57
2023-02-19T16:06:07.424Z,86.88
2023-02-19T16:07:09.807Z,85.98
2023-02-19T16:08:12.264Z,86.01
2023-02-19T16:09:14.747Z,85.98
2023-02-19T16:10:17.292Z,85.25
2023-02-19T16:11:19.765Z,85.75
2023-02-19T16:12:22.264Z,85.75
2023-02-19T16:13:26.271Z,85.35
2023-02-19T16:14:30.185Z,84.88
2023-02-19T16:15:34.328Z,85.10
2023-02-19T16:16:36.425Z,84.40
2023-02-19T16:17:38.859Z,84.43
2023-02-19T16:18:41.279Z,84.22
2023-02-19T16:19:43.721Z,84.37
2023-02-19T16:20:46.293Z,84.66
2023-02-19T16:21:48.682Z,84.97
2023-02-19T16:22:51.168Z,84.41
2023-02-19T16:23:53.637Z,84.40
2023-02-19T16:24:57.712Z,84.23
2023-02-19T16:26:01.591Z,84.36
2023-02-19T16:27:03.843Z,84.62
2023-02-19T16:28:06.305Z,84.74
2023-02-19T16:29:08.765Z,84.40
2023-02-19T16:30:11.267Z,84.57
2023-02-19T16:31:14.161Z,84.74
2023-02-19T16:32:17.275Z,85.02
2023-02-19T16:33:22.052Z,84.80
2023-02-19T16:34:25.385Z,85.07
2023-02-19T16:35:29.266Z,85.18
2023-02-19T16:45:00.378Z,83.56
2023-02-19T16:46:02.827Z,84.01
2023-02-19T16:47:07.838Z,83.03
2023-02-19T16:56:38.626Z,81.11
2023-02-19T17:06:11.945Z,78.77
2023-02-19T17:07:16.896Z,78.90
2023-02-19T17:16:47.078Z,79.94
2023-02-19T17:26:20.386Z,81.84
2023-02-19T17:27:22.831Z,82.30
2023-02-19T17:36:55.674Z,83.01
2023-02-19T17:46:31.466Z,85.36
2023-02-19T17:56:05.258Z,86.50
2023-02-19T18:05:39.137Z,86.97
2023-02-19T18:15:11.265Z,86.71
2023-02-19T18:24:45.306Z,86.21
2023-02-19T18:34:20.970Z,86.02
2023-02-19T18:43:53.440Z,86.44
2023-02-19T18:53:31.256Z,88.00
2023-02-19T19:03:01.333Z,89.52
2023-02-19T19:12:36.686Z,90.30
2023-02-19T19:22:10.774Z,91.06
2023-02-19T19:31:43.216Z,91.52
2023-02-19T19:41:16.961Z,91.76
2023-02-19T19:50:50.657Z,91.75
2023-02-19T20:00:24.635Z,91.66
2023-02-19T20:09:58.990Z,91.28
2023-02-19T20:19:33.169Z,90.70
2023-02-19T20:29:07.369Z,90.65
2023-02-19T20:38:43.037Z,90.77
2023-02-19T20:48:14.752Z,90.63
2023-02-19T20:57:48.851Z,90.66
2023-02-19T21:07:22.539Z,90.79
2023-02-19T21:16:58.157Z,90.92
2023-02-19T21:26:30.564Z,90.99
2023-02-19T21:36:04.635Z,91.29
2023-02-19T21:45:38.634Z,90.90
2023-02-19T21:55:12.681Z,90.34
2023-02-19T22:04:48.548Z,89.94
2023-02-19T22:14:20.667Z,90.01
2023-02-19T22:23:54.004Z,90.36
2023-02-19T22:33:27.859Z,90.20
2023-02-19T22:43:01.401Z,90.16
2023-02-19T22:52:35.264Z,90.37
2023-02-19T23:02:10.599Z,89.81
2023-02-19T23:21:29.050Z,90.58
2023-02-19T23:30:50.999Z,90.42
2023-02-19T23:50:00.604Z,91.75
2023-02-19T23:59:31.966Z,92.65
